Lillian, AL (36549)

5:42 PM CDT on August 29, 2014 (GMT -0500)
www.LillianWeather.com | Change Station
CLOSE
Current Station
Personal Weather Station
Location: Lillian, AL
Elevation: 56 ft
Nearby Weather Stations

Elev 56 ft 30.38 °N, 87.48 °W | Updated 8 seconds ago

Thunderstorm
Thunderstorm
80.2 °F
Feels Like 86 °F
N
6.0
Wind Variable Wind from South
Gusts 7.0 mph

Today
High -- | Low -- °F
--% Chance of Precip.
Yesterday
High -- | Low -- °F
Precip. -- in
6:24 AM 7:16 PM
Waxing Crescent, 17% visible
Pressure 29.99 in
Visibility 9.0 miles
Clouds Few 800 ft
Scattered Clouds 2000 ft
Mostly Cloudy 3000 ft
Overcast 13000 ft
Heat Index 86 °F
Dew Point 76 °F
Humidity 88%
Rainfall 0.07 in
Snow Depth Not available.
UV 1 out of 12
Pollen 7.60 out of 12
Air Quality Not available.
Flu Activity Not available.
SPECI KNPA 292226Z 17020G26KT 9SM -TSRA FEW008 SCT020 BKN030CB OVC130 27/26 A2999 RMK AO2 PK WND 18026/2225 TSB26 OCNL LTGICCC SE-SW TS SE-SW MOV N T1 SET P0002 T02670256

More Conditions Fewer Conditions

Pressure 29.99 in
Visibility 9.0 miles
Clouds Few 800 ft
Scattered Clouds 2000 ft
Mostly Cloudy 3000 ft
Overcast 13000 ft
Heat Index 86 °F
Dew Point 76 °F
Humidity 88%
Rainfall 0.07 in
Snow Depth Not available.
UV 1 out of 12
Pollen 7.60 out of 12
Air Quality Not available.
Flu Activity Not available.
SPECI KNPA 292226Z 17020G26KT 9SM -TSRA FEW008 SCT020 BKN030CB OVC130 27/26 A2999 RMK AO2 PK WND 18026/2225 TSB26 OCNL LTGICCC SE-SW TS SE-SW MOV N T1 SET P0002 T02670256

More Conditions Fewer Conditions

10-Day Weather Forecast

Almanac

Astronomy

Aug. 29, 2014 Rise Set
Actual Time 6:24 AM CDT 7:16 PM CDT
Civil Twilight 6:00 AM CDT 7:40 PM CDT
Nautical Twilight 5:31 AM CDT 8:09 PM CDT
Astronomical Twilight 5:01 AM CDT 8:39 PM CDT
Moon 9:55 AM CDT 9:33 PM CDT
Length of Visible Light 13h 40m
Length of Day
12h 51m
Tomorrow will be 1m 44s shorter.
Waxing Crescent, 17% of the Moon is Illuminated
Today
Waxing Crescent
Sep 2
First Quarter
Sep 8
Full
Sep 15
Last Quarter
Sep 24
New

Today's Extremes

State Highs State Lows

Community

WunderPhotos

Upload Photos

1,748,363 photos uploaded!

Nearby

Snow Depth

Station Depth Elevation
No new snow has been reported.

Earthquake Activity

City Distance Mag. Time & Date
No recent earthquake activity has been reported nearby.
Minimum magnitude displayed is 2.5.

Coastal Water Temperatures

Place Temperature
No Stations Reporting

Nearby Weather Stations